createdAt,value
2017-08-17T00:00:25.707Z,4.07
2017-08-17T00:03:25.165Z,4.43
2017-08-17T00:06:26.694Z,5.60
2017-08-17T00:09:45.395Z,5.07
2017-08-17T00:12:52.899Z,4.57
2017-08-17T00:16:08.645Z,4.20
2017-08-17T00:19:06.874Z,4.40
2017-08-17T00:22:23.686Z,5.27
2017-08-17T00:25:25.003Z,4.20
2017-08-17T00:28:27.601Z,4.13
2017-08-17T00:31:31.186Z,4.00
2017-08-17T00:34:41.822Z,3.57
2017-08-17T00:37:40.416Z,3.43
2017-08-17T00:40:38.099Z,3.83
2017-08-17T00:43:45.867Z,3.90
2017-08-17T00:46:53.384Z,3.83
2017-08-17T00:49:50.746Z,3.20
2017-08-17T00:52:48.187Z,3.83
2017-08-17T00:55:46.578Z,3.80
2017-08-17T00:58:44.028Z,3.53
2017-08-17T01:01:45.607Z,3.67
2017-08-17T01:04:46.143Z,4.10
2017-08-17T01:07:46.617Z,5.03
2017-08-17T01:11:01.226Z,4.57
2017-08-17T01:14:01.835Z,4.73
2017-08-17T01:17:12.447Z,4.00
2017-08-17T01:20:15.907Z,3.83
2017-08-17T01:23:31.647Z,4.23
2017-08-17T01:26:28.903Z,4.03
2017-08-17T01:29:34.523Z,4.40
2017-08-17T01:32:36.035Z,5.03
2017-08-17T01:35:42.632Z,4.77
2017-08-17T01:38:40.173Z,4.00
2017-08-17T01:41:49.879Z,3.70
2017-08-17T01:44:53.373Z,4.20
2017-08-17T01:47:51.879Z,3.23
2017-08-17T01:50:50.355Z,3.30
2017-08-17T01:53:50.944Z,4.13
2017-08-17T01:57:01.991Z,3.73
2017-08-17T02:00:03.368Z,3.90
2017-08-17T02:03:08.023Z,3.77
2017-08-17T02:06:07.490Z,5.00
2017-08-17T02:09:17.939Z,4.77
2017-08-17T02:12:15.289Z,4.40
2017-08-17T02:15:16.690Z,4.03
2017-08-17T02:18:20.271Z,4.50
2017-08-17T02:21:20.843Z,4.60
2017-08-17T02:24:18.233Z,4.60
2017-08-17T02:27:25.887Z,4.67
2017-08-17T02:30:35.349Z,3.83
2017-08-17T02:33:47.906Z,4.30
2017-08-17T02:36:53.490Z,4.30
2017-08-17T02:39:53.990Z,3.97
2017-08-17T02:42:55.518Z,4.17
2017-08-17T02:45:58.942Z,3.50
2017-08-17T02:48:56.400Z,3.60
2017-08-17T02:52:00.029Z,3.60
2017-08-17T02:55:16.515Z,3.10
2017-08-17T02:58:32.032Z,3.70
2017-08-17T03:01:29.794Z,4.27
2017-08-17T03:04:27.517Z,3.90
2017-08-17T03:07:25.266Z,4.20
2017-08-17T03:10:25.724Z,4.13
2017-08-17T03:13:25.407Z,3.40
2017-08-17T03:16:23.019Z,4.47
2017-08-17T03:19:22.668Z,4.70
2017-08-17T03:22:23.102Z,4.83
2017-08-17T03:25:38.758Z,3.50
2017-08-17T03:28:37.192Z,4.57
2017-08-17T03:31:50.803Z,3.97
2017-08-17T03:34:53.289Z,4.00
2017-08-17T03:37:59.752Z,3.90
2017-08-17T03:41:00.286Z,3.60
2017-08-17T03:44:11.802Z,4.07
2017-08-17T03:47:31.395Z,4.10
2017-08-17T03:50:44.809Z,3.93
2017-08-17T03:53:43.294Z,3.40
2017-08-17T03:56:41.767Z,3.73
2017-08-17T03:59:39.043Z,3.70
2017-08-17T04:02:37.514Z,4.03
2017-08-17T04:05:35.033Z,3.80
2017-08-17T04:08:45.570Z,4.00
2017-08-17T04:11:55.130Z,4.03
2017-08-17T04:14:52.607Z,3.97
2017-08-17T04:17:50.087Z,3.47
2017-08-17T04:20:47.519Z,4.20
2017-08-17T04:23:45.043Z,3.90
2017-08-17T04:26:42.517Z,3.37
2017-08-17T04:29:41.895Z,3.10
2017-08-17T04:32:40.438Z,3.90
2017-08-17T04:35:41.995Z,3.30
2017-08-17T04:38:41.336Z,3.33
2017-08-17T04:41:38.622Z,2.80
2017-08-17T04:44:36.934Z,3.50
2017-08-17T04:47:40.402Z,3.13
2017-08-17T04:50:37.742Z,3.47
2017-08-17T04:53:36.347Z,3.30
2017-08-17T04:56:53.000Z,3.00
2017-08-17T04:59:53.311Z,2.90
2017-08-17T05:02:50.631Z,2.87
2017-08-17T05:05:50.940Z,3.17
2017-08-17T05:08:48.272Z,3.40
2017-08-17T05:11:46.615Z,3.53
2017-08-17T05:14:44.264Z,3.40
2017-08-17T05:17:41.700Z,3.20
2017-08-17T05:20:42.170Z,3.80
2017-08-17T05:23:46.632Z,3.77
2017-08-17T05:26:44.096Z,3.57
2017-08-17T05:29:41.495Z,3.07
2017-08-17T05:32:40.959Z,3.50
2017-08-17T05:35:38.449Z,3.83
2017-08-17T05:38:35.968Z,3.77
2017-08-17T05:41:35.374Z,3.90
2017-08-17T05:44:33.636Z,3.50
2017-08-17T05:47:38.184Z,3.60
2017-08-17T05:50:36.530Z,3.93
2017-08-17T05:53:43.103Z,4.00
2017-08-17T05:56:41.528Z,3.80
2017-08-17T05:59:43.915Z,4.10
2017-08-17T06:02:41.381Z,4.10
2017-08-17T06:05:38.684Z,3.97
2017-08-17T06:08:35.977Z,3.70
2017-08-17T06:11:33.683Z,3.70
2017-08-17T06:14:31.047Z,3.87
2017-08-17T06:17:28.405Z,4.20
2017-08-17T06:20:26.767Z,4.10
2017-08-17T06:23:27.263Z,4.80
2017-08-17T06:26:28.704Z,4.90
2017-08-17T06:29:26.163Z,5.87
2017-08-17T06:32:25.681Z,5.17
2017-08-17T06:35:30.203Z,4.67
2017-08-17T06:38:27.676Z,5.57
2017-08-17T06:41:30.067Z,6.20
2017-08-17T06:44:38.539Z,5.57
2017-08-17T06:47:37.144Z,5.00
2017-08-17T06:50:37.826Z,5.33
2017-08-17T06:53:38.303Z,6.20
2017-08-17T06:56:41.834Z,5.97
2017-08-17T06:59:39.535Z,6.27
2017-08-17T07:02:43.896Z,6.13
2017-08-17T07:05:50.695Z,5.80
2017-08-17T07:08:48.099Z,5.53
2017-08-17T07:11:58.743Z,6.70
2017-08-17T07:14:57.527Z,5.63
2017-08-17T07:17:56.666Z,7.03
2017-08-17T07:20:55.566Z,6.80
2017-08-17T07:23:53.086Z,6.80
2017-08-17T07:26:51.390Z,7.00
2017-08-17T07:29:49.899Z,6.47
2017-08-17T07:32:53.414Z,7.07
2017-08-17T07:35:51.066Z,6.60
2017-08-17T07:38:49.507Z,6.67
2017-08-17T07:41:47.087Z,5.43
2017-08-17T07:44:45.567Z,5.83
2017-08-17T07:47:47.304Z,7.00
2017-08-17T07:50:52.956Z,6.90
2017-08-17T07:53:51.534Z,7.57
2017-08-17T07:56:52.091Z,6.27
2017-08-17T07:59:51.597Z,6.07
2017-08-17T08:02:49.147Z,6.80
2017-08-17T08:05:46.679Z,6.87
2017-08-17T08:08:51.347Z,6.47
2017-08-17T08:11:49.875Z,6.27
2017-08-17T08:14:47.375Z,7.00
2017-08-17T08:17:46.762Z,5.80
2017-08-17T08:20:44.413Z,6.33
2017-08-17T08:23:43.890Z,6.70
2017-08-17T08:26:41.493Z,6.30
2017-08-17T08:29:39.002Z,6.47
2017-08-17T08:32:42.589Z,6.13
2017-08-17T08:35:40.124Z,6.50
2017-08-17T08:38:38.735Z,5.57
2017-08-17T08:41:43.322Z,7.10
2017-08-17T08:44:42.002Z,5.90
2017-08-17T08:47:39.340Z,6.03
2017-08-17T08:50:37.158Z,6.10
2017-08-17T08:53:37.757Z,6.07
2017-08-17T08:56:39.079Z,6.50
2017-08-17T08:59:36.623Z,6.47
2017-08-17T09:02:35.278Z,5.73
2017-08-17T09:05:32.814Z,6.87
2017-08-17T09:08:31.227Z,5.73
2017-08-17T09:11:28.687Z,5.77
2017-08-17T09:14:27.132Z,5.70
2017-08-17T09:17:28.849Z,6.10
2017-08-17T09:20:26.249Z,6.23
2017-08-17T09:23:26.735Z,6.10
2017-08-17T09:26:24.162Z,5.97
2017-08-17T09:29:21.574Z,5.27
2017-08-17T09:32:19.026Z,5.93
2017-08-17T09:35:16.509Z,5.80
2017-08-17T09:38:16.103Z,5.43
2017-08-17T09:41:13.654Z,5.47
2017-08-17T09:44:14.194Z,5.90
2017-08-17T09:47:11.535Z,5.80
2017-08-17T09:50:17.246Z,5.60
2017-08-17T09:53:18.807Z,5.77
2017-08-17T09:56:19.872Z,4.90
2017-08-17T09:59:17.908Z,5.67
2017-08-17T10:02:16.399Z,5.17
2017-08-17T10:05:19.939Z,5.50
2017-08-17T10:08:33.732Z,5.37
2017-08-17T10:11:32.294Z,4.80
2017-08-17T10:14:31.783Z,5.00
2017-08-17T10:17:32.327Z,5.00
2017-08-17T10:20:30.706Z,4.90
2017-08-17T10:23:28.336Z,5.00
2017-08-17T10:26:33.005Z,4.90
2017-08-17T10:29:32.402Z,4.93
2017-08-17T10:32:31.915Z,4.40
2017-08-17T10:35:37.770Z,4.60
2017-08-17T10:38:43.531Z,5.20
2017-08-17T10:41:41.017Z,4.50
2017-08-17T10:44:40.422Z,4.10
2017-08-17T10:47:43.912Z,4.50
2017-08-17T10:50:42.238Z,4.27
2017-08-17T10:53:42.787Z,4.00
2017-08-17T10:56:41.302Z,4.47
2017-08-17T10:59:38.891Z,4.20
2017-08-17T11:02:37.372Z,5.00
2017-08-17T11:05:40.870Z,4.43
2017-08-17T11:08:44.434Z,3.70
2017-08-17T11:11:42.776Z,4.07
2017-08-17T11:14:40.280Z,4.03
2017-08-17T11:17:42.706Z,4.73
2017-08-17T11:20:41.199Z,4.43
2017-08-17T11:23:39.767Z,4.20
2017-08-17T11:26:37.234Z,4.80
2017-08-17T11:29:38.872Z,4.83
2017-08-17T11:32:38.301Z,4.73
2017-08-17T11:35:35.935Z,4.30
2017-08-17T11:38:33.331Z,4.30
2017-08-17T11:41:34.853Z,4.73
2017-08-17T11:44:32.314Z,3.80
2017-08-17T11:47:34.845Z,3.63
2017-08-17T11:50:34.187Z,4.13
2017-08-17T11:53:31.597Z,4.10
2017-08-17T11:56:31.979Z,3.90
2017-08-17T11:59:30.446Z,3.70
2017-08-17T12:02:31.080Z,4.00
2017-08-17T12:05:29.603Z,3.60
2017-08-17T12:08:29.039Z,4.33
2017-08-17T12:11:27.557Z,4.27
2017-08-17T12:14:27.135Z,4.20
2017-08-17T12:17:24.618Z,4.10
2017-08-17T12:20:24.242Z,4.13
2017-08-17T12:23:25.867Z,4.37
2017-08-17T12:26:24.320Z,4.10
2017-08-17T12:29:21.784Z,4.60
2017-08-17T12:32:21.167Z,3.90
2017-08-17T12:35:28.586Z,3.67
2017-08-17T12:38:26.063Z,3.80
2017-08-17T12:41:24.583Z,4.13
2017-08-17T12:44:23.994Z,3.40
2017-08-17T12:47:25.542Z,3.50
2017-08-17T12:50:25.183Z,3.30
2017-08-17T12:53:32.722Z,3.70
2017-08-17T12:56:39.498Z,3.37
2017-08-17T12:59:37.398Z,3.17
2017-08-17T13:02:35.875Z,3.60
2017-08-17T13:05:33.488Z,3.00
2017-08-17T13:08:30.918Z,2.97
2017-08-17T13:11:29.331Z,2.67
2017-08-17T13:14:32.839Z,3.10
2017-08-17T13:17:30.403Z,2.73
2017-08-17T13:20:32.898Z,2.90
2017-08-17T13:23:31.367Z,2.70
2017-08-17T13:26:28.728Z,2.50
2017-08-17T13:29:33.202Z,2.67
2017-08-17T13:32:30.601Z,2.53
2017-08-17T13:35:28.163Z,2.43
2017-08-17T13:38:25.418Z,2.40
2017-08-17T13:41:28.847Z,2.57
2017-08-17T13:44:26.287Z,2.50
2017-08-17T13:47:34.080Z,2.40
2017-08-17T13:53:53.026Z,2.50
2017-08-17T13:56:56.499Z,2.90
2017-08-17T13:59:53.898Z,2.00
2017-08-17T14:02:51.327Z,2.40
2017-08-17T14:05:51.777Z,2.30
2017-08-17T14:08:52.434Z,2.33
2017-08-17T14:11:50.999Z,2.27
2017-08-17T14:14:51.460Z,1.93
2017-08-17T14:17:51.765Z,1.80
2017-08-17T14:20:52.708Z,2.23
2017-08-17T14:23:50.635Z,1.80
2017-08-17T14:26:48.042Z,1.87
2017-08-17T14:29:56.690Z,1.87
2017-08-17T14:32:57.293Z,1.67
2017-08-17T14:35:55.037Z,1.57
2017-08-17T14:38:52.279Z,1.67
2017-08-17T14:41:51.778Z,1.87
2017-08-17T14:45:06.323Z,1.60
2017-08-17T14:48:12.982Z,1.60
2017-08-17T14:51:11.535Z,1.43
2017-08-17T14:54:09.032Z,1.37
2017-08-17T14:57:07.591Z,1.40
2017-08-17T15:00:15.002Z,1.40
2017-08-17T15:03:15.452Z,1.63
2017-08-17T15:06:19.159Z,1.60
2017-08-17T15:09:21.789Z,1.60
2017-08-17T15:12:21.355Z,1.63
2017-08-17T15:18:41.456Z,1.47
2017-08-17T15:21:38.937Z,1.20
2017-08-17T15:24:39.417Z,1.30
2017-08-17T15:27:43.991Z,1.37
2017-08-17T15:30:41.531Z,1.43
2017-08-17T15:33:46.158Z,1.30
2017-08-17T15:36:43.786Z,1.40
2017-08-17T15:39:43.280Z,1.20
2017-08-17T15:42:40.678Z,1.30
2017-08-17T15:45:39.295Z,1.30
2017-08-17T15:48:36.763Z,1.63
2017-08-17T15:51:42.698Z,1.20
2017-08-17T15:54:45.087Z,1.30
2017-08-17T15:57:49.531Z,1.20
2017-08-17T16:00:51.161Z,1.03
2017-08-17T16:03:57.181Z,1.40
2017-08-17T16:06:55.782Z,1.30
2017-08-17T16:09:57.231Z,1.17
2017-08-17T16:12:54.678Z,1.50
2017-08-17T16:15:52.108Z,1.10
2017-08-17T16:18:49.609Z,1.10
2017-08-17T16:21:47.055Z,1.20
2017-08-17T16:24:44.608Z,1.30
2017-08-17T16:27:43.075Z,1.00
2017-08-17T16:30:41.597Z,1.37
2017-08-17T16:33:38.982Z,1.20
2017-08-17T16:36:36.578Z,1.37
2017-08-17T16:39:33.938Z,1.40
2017-08-17T16:42:48.425Z,1.27
2017-08-17T16:45:45.965Z,1.40
2017-08-17T16:48:49.547Z,1.10
2017-08-17T16:51:51.230Z,1.13
2017-08-17T16:54:49.630Z,1.40
2017-08-17T16:57:54.234Z,1.23
2017-08-17T17:00:52.687Z,1.27
2017-08-17T17:03:52.154Z,1.33
2017-08-17T17:06:50.684Z,1.10
2017-08-17T17:09:52.154Z,1.20
2017-08-17T17:12:51.749Z,1.30
2017-08-17T17:15:58.217Z,1.23
2017-08-17T17:18:55.742Z,1.27
2017-08-17T17:21:53.127Z,1.57
2017-08-17T17:24:50.573Z,1.20
2017-08-17T17:27:50.068Z,1.30
2017-08-17T17:30:51.634Z,1.37
2017-08-17T17:33:52.099Z,1.07
2017-08-17T17:36:51.643Z,1.00
2017-08-17T17:39:50.119Z,1.40
2017-08-17T17:42:47.659Z,1.80
2017-08-17T17:45:46.103Z,1.57
2017-08-17T17:48:46.527Z,1.40
2017-08-17T17:51:46.966Z,1.90
2017-08-17T17:54:45.451Z,1.43
2017-08-17T17:57:42.992Z,1.43
2017-08-17T18:00:44.549Z,1.60
2017-08-17T18:03:41.920Z,1.70
2017-08-17T18:06:39.386Z,1.80
2017-08-17T18:09:37.873Z,1.53
2017-08-17T18:12:36.278Z,1.47
2017-08-17T18:15:33.634Z,1.50
2017-08-17T18:18:31.209Z,1.63
2017-08-17T18:21:28.872Z,1.57
2017-08-17T18:24:32.414Z,1.30
2017-08-17T18:27:32.778Z,1.93
2017-08-17T18:30:41.343Z,1.60
2017-08-17T18:33:44.850Z,1.73
2017-08-17T18:36:42.214Z,1.70
2017-08-17T18:39:42.810Z,1.97
2017-08-17T18:42:44.336Z,1.57
2017-08-17T18:45:46.705Z,1.47
2017-08-17T18:48:44.204Z,1.33
2017-08-17T18:51:41.586Z,1.30
2017-08-17T18:54:43.177Z,1.70
2017-08-17T18:57:42.806Z,1.77
2017-08-17T19:00:43.289Z,1.50
2017-08-17T19:03:40.659Z,2.13
2017-08-17T19:06:38.207Z,1.50
2017-08-17T19:09:35.784Z,1.90
2017-08-17T19:12:33.339Z,1.60
2017-08-17T19:15:31.780Z,1.60
2017-08-17T19:18:30.398Z,2.30
2017-08-17T19:21:35.740Z,2.10
2017-08-17T19:24:34.286Z,1.40
2017-08-17T19:27:31.991Z,1.50
2017-08-17T19:30:31.387Z,1.97
2017-08-17T19:33:28.963Z,2.10
2017-08-17T19:36:26.525Z,1.83
2017-08-17T19:39:23.999Z,1.60
2017-08-17T19:42:22.460Z,1.50
2017-08-17T19:45:37.226Z,1.60
2017-08-17T19:48:34.889Z,1.57
2017-08-17T19:51:32.428Z,1.43
2017-08-17T19:54:29.943Z,1.53
2017-08-17T19:57:27.471Z,1.77
2017-08-17T20:00:25.054Z,1.37
2017-08-17T20:03:23.498Z,1.63
2017-08-17T20:06:21.776Z,1.70
2017-08-17T20:09:21.439Z,1.50
2017-08-17T20:12:25.867Z,1.90
2017-08-17T20:15:23.391Z,2.13
2017-08-17T20:18:20.935Z,1.70
2017-08-17T20:21:23.319Z,1.80
2017-08-17T20:24:23.894Z,1.53
2017-08-17T20:27:21.407Z,1.60
2017-08-17T20:30:20.955Z,1.77
2017-08-17T20:33:22.484Z,1.70
2017-08-17T20:36:33.130Z,1.77
2017-08-17T20:39:33.462Z,1.70
2017-08-17T20:42:31.077Z,1.40
2017-08-17T20:45:29.419Z,1.67
2017-08-17T20:48:35.883Z,1.60
2017-08-17T20:51:35.369Z,1.87
2017-08-17T20:54:32.875Z,1.70
2017-08-17T20:57:38.374Z,1.87
2017-08-17T21:00:35.927Z,2.20
2017-08-17T21:03:34.356Z,1.90
2017-08-17T21:06:43.986Z,1.73
2017-08-17T21:09:43.654Z,1.50
2017-08-17T21:12:45.223Z,1.97
2017-08-17T21:15:45.811Z,1.77
2017-08-17T21:18:43.324Z,1.70
2017-08-17T21:21:44.846Z,1.53
2017-08-17T21:24:48.428Z,1.40
2017-08-17T21:27:46.886Z,1.80
2017-08-17T21:30:51.458Z,1.53
2017-08-17T21:33:59.877Z,1.73
2017-08-17T21:37:11.390Z,1.70
2017-08-17T21:40:12.719Z,1.90
2017-08-17T21:43:16.093Z,1.83
2017-08-17T21:49:35.283Z,2.10
2017-08-17T21:52:34.691Z,1.90
2017-08-17T21:55:32.267Z,1.40
2017-08-17T21:58:29.658Z,1.80
2017-08-17T22:01:29.271Z,1.80
2017-08-17T22:04:40.903Z,1.90
2017-08-17T22:07:40.148Z,1.50
2017-08-17T22:10:37.734Z,1.57
2017-08-17T22:13:36.144Z,1.70
2017-08-17T22:16:38.808Z,1.80
2017-08-17T22:19:37.345Z,1.60
2017-08-17T22:22:38.851Z,1.70
2017-08-17T22:25:37.375Z,2.40
2017-08-17T22:28:35.814Z,2.00
2017-08-17T22:31:43.467Z,1.60
2017-08-17T22:34:44.025Z,1.87
2017-08-17T22:37:41.542Z,1.87
2017-08-17T22:40:39.961Z,1.67
2017-08-17T22:43:43.383Z,1.73
2017-08-17T22:46:41.814Z,1.77
2017-08-17T22:49:39.367Z,1.70
2017-08-17T22:52:47.963Z,1.97
2017-08-17T22:55:45.523Z,1.77
2017-08-17T22:58:45.984Z,1.80
2017-08-17T23:01:49.722Z,1.50
2017-08-17T23:04:51.066Z,1.80
2017-08-17T23:07:48.606Z,1.63
2017-08-17T23:10:46.019Z,1.40
2017-08-17T23:13:52.308Z,1.83
2017-08-17T23:16:49.769Z,1.33
2017-08-17T23:19:49.372Z,1.90
2017-08-17T23:22:46.782Z,1.80
2017-08-17T23:25:45.308Z,1.97
2017-08-17T23:28:42.774Z,1.80
2017-08-17T23:31:40.270Z,1.40
2017-08-17T23:34:41.010Z,1.80
2017-08-17T23:37:38.632Z,1.90
2017-08-17T23:40:36.074Z,1.77
2017-08-17T23:43:34.454Z,1.93
2017-08-17T23:46:32.083Z,1.80
2017-08-17T23:50:34.071Z,1.77
2017-08-17T23:53:31.784Z,2.27
2017-08-17T23:56:29.444Z,1.73
2017-08-17T23:59:26.975Z,2.00
